Impacts TAF Board
For situational awareness. Not to be used for flight planning purposes.
IDs:

KSAT - San Antonio Intl, TX, US

Issued at 0520 UTC 27 Sep 2020
Updated at 0656 UTC 27 Sep 2020
Potential Impact None Slight Moderate High
Time0651Z 27/07Z 27/08Z 27/09Z 27/10Z 27/11Z 27/12Z 27/13Z 27/14Z 27/15Z 27/16Z 27/17Z 27/18Z 27/19Z>>
Type OBS PRVL PRVL PRVL PRVL PRVL PRVL PRVL PRVL PRVL PRVL PRVL PRVL PRVL
VIS 10 >6 >6 >6 >6 >6 >6 >6 >6 >6 >6 >6 >6 >6
CIG 13 -- 15 15 15 8 8 8 8 8 12 12 -- --
Cover BKN SKC BKN BKN BKN OVC OVC OVC OVC OVC OVC OVC SCT SCT
FltCat MVFR VFR MVFR MVFR MVFR IFR IFR IFR IFR IFR MVFR MVFR VFR VFR
WX -- -- -- -- -- -- -- -- -- -- -- -- -- --
WDir 170 150 160 160 160 170 170 170 170 170 170 170 160 160
WSpd 11 12 8 8 8 8 8 8 8 8 10 10 14 14
WGst -- -- -- -- -- -- -- -- -- -- -- -- -- --
R04/22
XWnd -9 -11 -7 -7 -7 -6 -6 -6 -6 -6 -8 -8 -12 -12
HWnd -7 -4 -4 -4 -4 -5 -5 -5 -5 -5 -6 -6 -7 -7
R12/30
XWnd -7 -4 -4 -4 -4 -5 -5 -5 -5 -5 -6 -6 -7 -7
HWnd 9 11 7 7 7 6 6 6 6 6 8 8 12 12
Raw TAF
KSAT 270520Z 2706/2812 15012KT P6SM SKC
  FM270800 16008KT P6SM BKN015
  FM271100 17008KT P6SM OVC008
  FM271600 17010KT P6SM OVC012
  FM271800 16014KT P6SM SCT025


Raw METAR
KSAT 270651Z 17011KT 10SM BKN013 25/22 A2985 RMK AO2 SLP089 T02500222
KSAT 270641Z 17009KT 10SM BKN013 25/22 A2985 RMK AO2 T02500222
KSAT 270551Z 16010KT 10SM FEW015 25/22 A2985 RMK AO2 SLP091 T02500217 10306 20250 403280211 51006
KSAT 270451Z 16010KT 10SM FEW015 26/22 A2985 RMK AO2 SLP091 T02560222
KSAT 270351Z 15012KT 10SM CLR 26/22 A2984 RMK AO2 SLP088 T02610217

METAR Board
Radar Display
Forecast Discussion
For situational awareness. Not to be used for flight planning purposes.